createdAt,value
2023-02-12T00:01:40.601Z,1.70
2023-02-12T00:04:08.889Z,1.80
2023-02-12T00:06:40.616Z,1.80
2023-02-12T00:09:11.493Z,1.50
2023-02-12T00:11:39.779Z,1.60
2023-02-12T00:14:07.955Z,1.60
2023-02-12T00:16:36.138Z,1.50
2023-02-12T00:19:05.332Z,1.80
2023-02-12T00:21:35.772Z,2.10
2023-02-12T00:24:04.819Z,2.10
2023-02-12T00:26:33.024Z,1.60
2023-02-12T00:29:01.471Z,1.60
2023-02-12T00:31:31.706Z,1.40
2023-02-12T00:34:00.536Z,1.80
2023-02-12T00:36:31.288Z,1.60
2023-02-12T00:39:00.704Z,2.10
2023-02-12T00:41:29.039Z,2.20
2023-02-12T00:43:57.301Z,2.10
2023-02-12T00:46:25.575Z,2.10
2023-02-12T00:48:54.872Z,1.90
2023-02-12T00:51:23.169Z,2.00
2023-02-12T00:53:51.553Z,2.00
2023-02-12T00:56:19.771Z,2.30
2023-02-12T00:58:50.991Z,2.20
2023-02-12T01:01:21.617Z,2.90
2023-02-12T01:03:50.347Z,7.80
2023-02-12T01:06:21.757Z,8.60
2023-02-12T01:08:54.711Z,5.70
2023-02-12T01:11:23.079Z,5.60
2023-02-12T01:13:51.404Z,6.80
2023-02-12T01:16:23.145Z,6.40
2023-02-12T01:18:55.628Z,6.70
2023-02-12T01:21:27.985Z,5.90
2023-02-12T01:23:57.867Z,5.50
2023-02-12T01:26:27.715Z,5.20
2023-02-12T01:29:05.499Z,4.60
2023-02-12T01:31:39.048Z,4.50
2023-02-12T01:34:08.355Z,3.90
2023-02-12T01:36:37.111Z,3.70
2023-02-12T01:39:06.725Z,3.80
2023-02-12T01:41:39.660Z,4.00
2023-02-12T01:44:13.772Z,4.70
2023-02-12T01:46:45.456Z,4.40
2023-02-12T01:49:39.416Z,4.20
2023-02-12T01:52:14.575Z,4.80
2023-02-12T01:54:43.796Z,4.40
2023-02-12T01:57:14.477Z,4.70
2023-02-12T02:05:41.990Z,4.30
2023-02-12T02:08:11.959Z,4.70
2023-02-12T02:10:40.451Z,4.30
2023-02-12T02:13:27.702Z,3.80
2023-02-12T02:16:00.591Z,2.90
2023-02-12T02:18:41.460Z,3.10
2023-02-12T02:21:41.087Z,3.30
2023-02-12T02:24:26.927Z,3.30
2023-02-12T02:27:15.306Z,3.30
2023-02-12T02:30:09.383Z,2.90
2023-02-12T02:33:14.171Z,2.60
2023-02-12T02:35:52.787Z,2.80
2023-02-12T02:38:41.208Z,2.50
2023-02-12T02:41:23.861Z,2.40
2023-02-12T02:43:55.773Z,2.20
2023-02-12T02:46:32.822Z,2.00
2023-02-12T02:49:07.649Z,2.10
2023-02-12T02:51:45.835Z,2.00
2023-02-12T02:54:23.239Z,2.10
2023-02-12T02:56:55.258Z,2.70
2023-02-12T02:59:34.304Z,3.10
2023-02-12T03:02:12.368Z,4.00
2023-02-12T03:04:49.975Z,3.70
2023-02-12T03:07:27.427Z,2.60
2023-02-12T03:10:16.307Z,2.30
2023-02-12T03:12:49.247Z,2.10
2023-02-12T03:15:38.617Z,2.00
2023-02-12T03:18:13.208Z,2.30
2023-02-12T03:20:45.873Z,2.00
2023-02-12T03:23:19.871Z,2.10
2023-02-12T03:26:21.483Z,2.20
2023-02-12T03:28:51.352Z,2.10
2023-02-12T03:31:25.008Z,1.90
2023-02-12T03:34:03.165Z,2.10
2023-02-12T03:36:35.412Z,1.90
2023-02-12T03:39:21.576Z,2.00
2023-02-12T03:42:15.130Z,2.00
2023-02-12T03:44:55.738Z,2.60
2023-02-12T03:47:43.096Z,3.10
2023-02-12T03:50:19.346Z,3.20
2023-02-12T03:52:51.156Z,3.10
2023-02-12T03:55:19.925Z,3.20
2023-02-12T03:57:55.700Z,3.30
2023-02-12T04:00:25.875Z,3.20
2023-02-12T04:02:55.459Z,2.80
2023-02-12T04:05:26.904Z,2.70
2023-02-12T04:07:58.412Z,2.90
2023-02-12T04:10:33.469Z,2.60
2023-02-12T04:13:09.880Z,2.70
2023-02-12T04:15:47.848Z,2.90
2023-02-12T04:18:42.895Z,2.90
2023-02-12T04:21:48.678Z,3.30
2023-02-12T04:24:33.242Z,3.20
2023-02-12T04:27:37.655Z,2.90
2023-02-12T04:30:32.322Z,3.20
2023-02-12T04:33:05.612Z,3.20
2023-02-12T04:35:37.051Z,3.10
2023-02-12T04:38:52.305Z,3.10
2023-02-12T04:41:20.983Z,3.50
2023-02-12T04:43:49.341Z,3.80
2023-02-12T04:46:18.247Z,4.60
2023-02-12T04:48:55.633Z,5.70
2023-02-12T04:51:24.544Z,7.60
2023-02-12T04:53:52.986Z,9.10
2023-02-12T04:56:21.398Z,8.00
2023-02-12T04:58:50.674Z,8.70
2023-02-12T05:01:20.380Z,9.70
2023-02-12T05:03:48.907Z,10.60
2023-02-12T05:06:18.532Z,10.80
2023-02-12T05:08:47.453Z,10.70
2023-02-12T05:11:15.911Z,11.60
2023-02-12T05:13:44.463Z,11.10
2023-02-12T05:16:12.928Z,11.10
2023-02-12T05:18:41.566Z,12.70
2023-02-12T05:21:10.498Z,12.90
2023-02-12T05:23:40.409Z,14.90
2023-02-12T05:26:14.919Z,14.50
2023-02-12T05:28:43.526Z,15.50
2023-02-12T05:31:18.773Z,15.90
2023-02-12T05:33:49.796Z,18.20
2023-02-12T05:36:21.337Z,17.40
2023-02-12T05:38:51.117Z,16.10
2023-02-12T05:41:25.102Z,12.10
2023-02-12T05:43:54.385Z,11.60
2023-02-12T05:46:22.831Z,8.80
2023-02-12T05:48:51.274Z,9.60
2023-02-12T05:51:22.471Z,9.60
2023-02-12T05:53:59.195Z,10.50
2023-02-12T05:56:33.291Z,11.60
2023-02-12T05:59:13.919Z,12.60
2023-02-12T06:01:44.518Z,13.50
2023-02-12T06:04:20.777Z,13.30
2023-02-12T06:06:49.854Z,13.00
2023-02-12T06:09:18.333Z,12.20
2023-02-12T06:11:46.785Z,10.50
2023-02-12T06:14:17.734Z,11.50
2023-02-12T06:16:48.237Z,11.40
2023-02-12T06:19:20.833Z,12.70
2023-02-12T06:21:49.277Z,14.40
2023-02-12T06:24:18.408Z,15.60
2023-02-12T06:26:51.042Z,14.40
2023-02-12T06:29:20.210Z,15.60
2023-02-12T06:31:49.371Z,16.30
2023-02-12T06:34:18.510Z,17.30
2023-02-12T06:36:48.078Z,16.80
2023-02-12T06:39:17.423Z,17.10
2023-02-12T06:41:45.895Z,16.80
2023-02-12T06:44:14.415Z,19.10
2023-02-12T06:46:43.240Z,17.20
2023-02-12T06:49:13.201Z,17.80
2023-02-12T06:51:41.928Z,17.40
2023-02-12T06:54:14.992Z,16.20
2023-02-12T06:56:44.413Z,15.20
2023-02-12T06:59:15.654Z,14.60
2023-02-12T07:01:44.521Z,13.80
2023-02-12T07:04:13.184Z,12.60
2023-02-12T07:06:42.074Z,11.00
2023-02-12T07:09:10.374Z,11.50
2023-02-12T07:11:39.051Z,11.80
2023-02-12T07:14:07.827Z,13.30
2023-02-12T07:16:37.803Z,12.70
2023-02-12T07:19:06.232Z,12.60
2023-02-12T07:21:34.810Z,12.00
2023-02-12T07:24:03.155Z,10.50
2023-02-12T07:26:31.590Z,10.20
2023-02-12T07:28:59.908Z,11.50
2023-02-12T07:31:28.383Z,12.40
2023-02-12T07:33:58.715Z,13.20
2023-02-12T07:36:29.817Z,12.70
2023-02-12T07:38:58.785Z,14.20
2023-02-12T07:41:30.169Z,13.50
2023-02-12T07:44:01.660Z,13.00
2023-02-12T07:46:42.555Z,12.00
2023-02-12T07:49:14.966Z,11.90
2023-02-12T07:51:43.933Z,11.20
2023-02-12T07:54:17.748Z,11.10
2023-02-12T07:56:47.447Z,10.70
2023-02-12T07:59:19.153Z,10.00
2023-02-12T08:01:52.430Z,9.60
2023-02-12T08:04:24.099Z,9.00
2023-02-12T08:06:55.207Z,9.60
2023-02-12T08:09:26.978Z,9.70
2023-02-12T08:11:55.893Z,8.30
2023-02-12T08:14:24.508Z,9.40
2023-02-12T08:16:53.076Z,9.20
2023-02-12T08:19:26.354Z,9.00
2023-02-12T08:24:25.484Z,8.00
2023-02-12T08:26:54.121Z,8.40
2023-02-12T08:29:31.696Z,8.60
2023-02-12T08:32:03.883Z,7.70
2023-02-12T08:34:34.737Z,8.10
2023-02-12T08:37:05.674Z,7.10
2023-02-12T08:39:34.115Z,6.80
2023-02-12T08:42:02.512Z,7.70
2023-02-12T08:44:31.002Z,7.50
2023-02-12T08:47:00.505Z,7.30
2023-02-12T08:49:30.408Z,7.90
2023-02-12T08:52:01.945Z,10.80
2023-02-12T08:54:33.183Z,9.00
2023-02-12T08:57:04.047Z,8.90
2023-02-12T08:59:32.618Z,8.50
2023-02-12T09:02:01.295Z,10.40
2023-02-12T09:04:30.157Z,11.30
2023-02-12T09:06:58.560Z,8.90
2023-02-12T09:09:28.952Z,9.50
2023-02-12T09:11:58.142Z,9.20
2023-02-12T09:14:26.523Z,8.90
2023-02-12T09:16:57.472Z,10.20
2023-02-12T09:19:26.306Z,10.80
2023-02-12T09:21:56.776Z,9.70
2023-02-12T09:24:28.288Z,9.80
2023-02-12T09:26:58.092Z,8.20
2023-02-12T09:29:26.491Z,7.30
2023-02-12T09:31:55.188Z,7.30
2023-02-12T09:34:23.723Z,8.70
2023-02-12T09:36:56.920Z,7.70
2023-02-12T09:39:34.287Z,7.30
2023-02-12T09:42:39.670Z,8.00
2023-02-12T09:45:21.881Z,10.00
2023-02-12T09:48:50.617Z,9.20
2023-02-12T09:51:45.373Z,9.60
2023-02-12T09:54:38.256Z,7.30
2023-02-12T09:57:58.914Z,7.40
2023-02-12T10:03:29.199Z,7.70
2023-02-12T10:10:10.054Z,7.60
2023-02-12T10:13:07.302Z,8.80
2023-02-12T10:15:38.356Z,7.40
2023-02-12T10:18:20.119Z,7.00
2023-02-12T10:21:42.488Z,6.70
2023-02-12T10:24:42.262Z,7.30
2023-02-12T10:27:17.680Z,7.20
2023-02-12T10:29:54.549Z,8.80
2023-02-12T10:33:12.103Z,10.60
2023-02-12T10:35:49.024Z,6.40
2023-02-12T10:38:34.994Z,8.00
2023-02-12T10:41:04.098Z,9.20
2023-02-12T10:43:33.866Z,7.70
2023-02-12T10:46:02.648Z,7.10
2023-02-12T10:48:45.280Z,6.10
2023-02-12T10:51:54.004Z,6.50
2023-02-12T10:54:41.338Z,6.20
2023-02-12T10:57:30.975Z,6.20
2023-02-12T11:00:26.766Z,7.30
2023-02-12T11:03:06.974Z,7.00
2023-02-12T11:05:36.768Z,8.20
2023-02-12T11:08:06.624Z,6.10
2023-02-12T11:10:40.381Z,6.60
2023-02-12T11:16:36.339Z,7.00
2023-02-12T11:19:08.518Z,5.50
2023-02-12T11:21:36.846Z,5.50
2023-02-12T11:24:52.686Z,6.00
2023-02-12T11:28:14.513Z,5.00
2023-02-12T11:31:25.710Z,4.40
2023-02-12T11:34:22.743Z,5.10
2023-02-12T11:36:54.874Z,5.00
2023-02-12T11:39:33.017Z,5.20
2023-02-12T11:46:08.157Z,4.60
2023-02-12T11:49:16.371Z,4.90
2023-02-12T11:51:49.064Z,5.20
2023-02-12T11:54:23.951Z,5.10
2023-02-12T11:59:36.211Z,7.40
2023-02-12T12:02:26.119Z,7.20
2023-02-12T12:05:08.209Z,8.00
2023-02-12T12:07:44.001Z,6.30
2023-02-12T12:10:19.469Z,6.90
2023-02-12T12:13:02.950Z,6.60
2023-02-12T12:16:00.411Z,7.20
2023-02-12T12:19:07.994Z,7.60
2023-02-12T12:21:53.612Z,6.40
2023-02-12T12:24:35.391Z,8.00
2023-02-12T12:27:25.118Z,6.90
2023-02-12T12:30:11.271Z,7.20
2023-02-12T12:33:00.474Z,8.50
2023-02-12T12:35:46.314Z,8.40
2023-02-12T12:38:42.052Z,9.80
2023-02-12T12:41:39.831Z,8.90
2023-02-12T12:44:22.600Z,8.80
2023-02-12T12:47:02.133Z,9.30
2023-02-12T12:49:33.322Z,9.30
2023-02-12T12:52:29.351Z,9.50
2023-02-12T12:55:16.728Z,8.90
2023-02-12T12:58:07.290Z,9.20
2023-02-12T13:00:44.641Z,10.00
2023-02-12T13:03:45.588Z,10.20
2023-02-12T13:06:33.438Z,10.70
2023-02-12T13:09:13.836Z,9.90
2023-02-12T13:11:51.830Z,10.20
2023-02-12T13:14:58.855Z,10.10
2023-02-12T13:17:41.676Z,10.70
2023-02-12T13:20:19.589Z,10.70
2023-02-12T13:23:03.234Z,11.90
2023-02-12T13:25:43.061Z,9.80
2023-02-12T13:28:19.292Z,11.00
2023-02-12T13:30:52.608Z,10.00
2023-02-12T13:33:25.315Z,10.80
2023-02-12T13:36:01.175Z,12.00
2023-02-12T13:38:38.169Z,12.60
2023-02-12T13:41:10.377Z,13.30
2023-02-12T13:44:02.315Z,12.40
2023-02-12T13:46:48.868Z,13.60
2023-02-12T13:49:52.311Z,13.10
2023-02-12T13:52:50.419Z,12.10
2023-02-12T13:55:41.992Z,11.70
2023-02-12T14:01:49.770Z,11.90
2023-02-12T14:04:31.257Z,14.20
2023-02-12T14:07:10.103Z,13.70
2023-02-12T14:09:44.713Z,14.70
2023-02-12T14:12:27.363Z,15.50
2023-02-12T14:15:11.211Z,14.90
2023-02-12T14:17:39.406Z,13.70
2023-02-12T14:20:25.903Z,13.50
2023-02-12T14:23:24.416Z,14.20
2023-02-12T14:26:10.631Z,15.90
2023-02-12T14:29:02.115Z,20.10
2023-02-12T14:31:32.503Z,16.60
2023-02-12T14:34:07.787Z,16.80
2023-02-12T14:36:40.865Z,17.40
2023-02-12T14:39:23.489Z,14.40
2023-02-12T14:41:54.249Z,17.50
2023-02-12T14:44:30.691Z,16.10
2023-02-12T14:47:13.406Z,15.40
2023-02-12T14:49:55.979Z,14.40
2023-02-12T14:52:32.692Z,16.40
2023-02-12T14:55:06.307Z,17.30
2023-02-12T14:57:51.492Z,19.60
2023-02-12T15:00:27.773Z,16.70
2023-02-12T15:03:08.607Z,19.40
2023-02-12T15:06:01.673Z,21.10
2023-02-12T15:08:49.187Z,21.60
2023-02-12T15:11:27.119Z,21.50
2023-02-12T15:13:58.125Z,19.70
2023-02-12T15:16:34.973Z,18.80
2023-02-12T15:19:44.813Z,20.40
2023-02-12T15:22:28.384Z,18.50
2023-02-12T15:25:17.751Z,19.20
2023-02-12T15:27:49.180Z,20.90
2023-02-12T15:30:26.742Z,21.10
2023-02-12T15:33:01.262Z,21.90
2023-02-12T15:35:35.228Z,19.70
2023-02-12T15:38:07.978Z,21.60
2023-02-12T15:40:36.495Z,20.90
2023-02-12T15:43:07.516Z,20.90
2023-02-12T15:45:36.727Z,19.80
2023-02-12T15:48:14.010Z,17.40
2023-02-12T15:51:14.680Z,19.60
2023-02-12T15:53:45.497Z,20.20
2023-02-12T15:56:51.970Z,24.00
2023-02-12T15:59:23.643Z,25.90
2023-02-12T16:02:03.638Z,23.60
2023-02-12T16:04:34.434Z,22.90
2023-02-12T16:07:03.345Z,20.80
2023-02-12T16:09:34.029Z,21.50
2023-02-12T16:12:05.617Z,25.50
2023-02-12T16:14:43.656Z,24.30
2023-02-12T16:17:30.346Z,22.80
2023-02-12T16:20:01.834Z,22.50
2023-02-12T16:22:38.882Z,20.80
2023-02-12T16:25:27.929Z,20.00
2023-02-12T16:28:04.342Z,19.40
2023-02-12T16:30:33.771Z,20.10
2023-02-12T16:33:02.697Z,19.60
2023-02-12T16:35:33.742Z,20.60
2023-02-12T16:38:03.981Z,20.90
2023-02-12T16:40:35.803Z,19.90
2023-02-12T16:43:22.614Z,21.90
2023-02-12T16:45:51.394Z,21.60
2023-02-12T16:48:25.440Z,21.10
2023-02-12T16:50:59.804Z,19.80
2023-02-12T16:53:36.196Z,19.50
2023-02-12T16:56:05.626Z,20.10
2023-02-12T16:58:34.105Z,21.00
2023-02-12T17:01:04.578Z,24.10
2023-02-12T17:03:34.994Z,21.80
2023-02-12T17:06:03.726Z,24.70
2023-02-12T17:08:32.005Z,20.90
2023-02-12T17:11:01.976Z,24.10
2023-02-12T17:13:33.798Z,19.60
2023-02-12T17:16:06.071Z,18.10
2023-02-12T17:18:36.048Z,18.00
2023-02-12T17:21:08.862Z,19.10
2023-02-12T17:23:37.098Z,18.90
2023-02-12T17:26:07.442Z,21.00
2023-02-12T17:28:36.165Z,19.00
2023-02-12T17:31:06.353Z,19.40
2023-02-12T17:33:34.607Z,19.00
2023-02-12T17:36:03.596Z,19.60
2023-02-12T17:38:32.358Z,19.90
2023-02-12T17:41:04.105Z,19.50
2023-02-12T17:43:36.392Z,18.20
2023-02-12T17:46:17.186Z,17.90
2023-02-12T17:48:45.880Z,18.00
2023-02-12T17:51:14.682Z,18.40
2023-02-12T17:53:43.132Z,19.10
2023-02-12T17:56:17.595Z,17.40
2023-02-12T17:58:47.086Z,19.70
2023-02-12T18:01:18.376Z,19.50
2023-02-12T18:03:47.155Z,19.50
2023-02-12T18:06:25.970Z,21.10
2023-02-12T18:08:55.513Z,18.50
2023-02-12T18:11:23.831Z,18.60
2023-02-12T18:13:54.720Z,17.60
2023-02-12T18:16:25.377Z,16.80
2023-02-12T18:18:54.205Z,26.80
2023-02-12T18:21:22.409Z,19.70
2023-02-12T18:23:50.929Z,15.70
2023-02-12T18:26:25.183Z,14.80
2023-02-12T18:28:54.318Z,18.30
2023-02-12T18:31:23.019Z,15.50
2023-02-12T18:33:54.999Z,16.70
2023-02-12T18:36:44.017Z,16.50
2023-02-12T18:39:12.725Z,16.50
2023-02-12T18:41:41.098Z,14.10
2023-02-12T18:44:09.337Z,14.30
2023-02-12T18:46:39.391Z,15.00
2023-02-12T18:49:10.520Z,14.40
2023-02-12T18:51:41.775Z,14.10
2023-02-12T18:54:14.374Z,14.50
2023-02-12T18:56:45.565Z,12.60
2023-02-12T18:59:15.851Z,13.00
2023-02-12T19:01:44.949Z,13.10
2023-02-12T19:04:14.524Z,12.80
2023-02-12T19:06:47.929Z,13.60
2023-02-12T19:09:25.048Z,13.60
2023-02-12T19:11:56.749Z,16.00
2023-02-12T19:14:27.413Z,15.10
2023-02-12T19:16:56.214Z,12.60
2023-02-12T19:19:24.928Z,13.80
2023-02-12T19:21:53.869Z,13.50
2023-02-12T19:24:45.510Z,12.90
2023-02-12T19:27:14.927Z,12.30
2023-02-12T19:29:43.277Z,12.80
2023-02-12T19:32:11.578Z,14.20
2023-02-12T19:34:40.243Z,13.10
2023-02-12T19:37:11.683Z,13.50
2023-02-12T19:39:41.382Z,13.00
2023-02-12T19:42:12.428Z,13.40
2023-02-12T19:44:41.318Z,12.60
2023-02-12T19:47:09.810Z,12.70
2023-02-12T19:49:38.517Z,11.60
2023-02-12T19:52:07.319Z,11.80
2023-02-12T19:54:36.211Z,11.20
2023-02-12T19:57:09.193Z,9.80
2023-02-12T19:59:37.566Z,10.40
2023-02-12T20:02:05.995Z,9.30
2023-02-12T20:04:34.293Z,9.40
2023-02-12T20:07:02.542Z,9.80
2023-02-12T20:09:31.049Z,10.10
2023-02-12T20:11:59.790Z,10.10
2023-02-12T20:14:28.344Z,9.90
2023-02-12T20:16:58.795Z,8.10
2023-02-12T20:19:31.775Z,9.50
2023-02-12T20:22:02.251Z,10.10
2023-02-12T20:24:33.840Z,10.10
2023-02-12T20:27:03.929Z,10.90
2023-02-12T20:29:32.863Z,10.90
2023-02-12T20:32:01.281Z,10.50
2023-02-12T20:34:32.903Z,10.60
2023-02-12T20:37:06.586Z,10.80
2023-02-12T20:39:35.006Z,9.80
2023-02-12T20:42:03.438Z,10.30
2023-02-12T20:44:34.274Z,9.40
2023-02-12T20:47:03.096Z,8.80
2023-02-12T20:49:31.217Z,9.70
2023-02-12T20:51:59.449Z,10.20
2023-02-12T20:54:27.760Z,9.20
2023-02-12T20:56:56.053Z,8.70
2023-02-12T20:59:24.334Z,8.60
2023-02-12T21:01:52.667Z,8.80
2023-02-12T21:04:20.975Z,10.30
2023-02-12T21:06:49.396Z,9.80
2023-02-12T21:09:19.104Z,10.00
2023-02-12T21:11:48.459Z,10.80
2023-02-12T21:14:24.903Z,10.60
2023-02-12T21:16:55.752Z,10.50
2023-02-12T21:19:25.236Z,9.60
2023-02-12T21:21:53.946Z,9.50
2023-02-12T21:24:25.045Z,9.40
2023-02-12T21:26:54.380Z,9.00
2023-02-12T21:29:23.234Z,8.50
2023-02-12T21:31:51.877Z,8.20
2023-02-12T21:34:53.281Z,9.20
2023-02-12T21:40:49.707Z,8.30
2023-02-12T21:43:18.028Z,9.30
2023-02-12T21:46:02.904Z,7.60
2023-02-12T21:48:58.615Z,7.10
2023-02-12T21:52:11.644Z,7.60
2023-02-12T21:54:40.251Z,8.40
2023-02-12T21:57:23.337Z,7.70
2023-02-12T22:02:35.688Z,7.90
2023-02-12T22:05:05.074Z,7.30
2023-02-12T22:07:54.702Z,7.50
2023-02-12T22:10:55.569Z,7.50
2023-02-12T22:13:26.723Z,7.40
2023-02-12T22:15:55.071Z,7.10
2023-02-12T22:18:23.330Z,6.20
2023-02-12T22:20:51.503Z,7.00
2023-02-12T22:23:19.733Z,7.00
2023-02-12T22:25:48.064Z,7.50
2023-02-12T22:28:16.401Z,7.50
2023-02-12T22:30:44.663Z,7.20
2023-02-12T22:33:13.014Z,7.00
2023-02-12T22:35:41.218Z,7.00
2023-02-12T22:38:09.376Z,7.20
2023-02-12T22:40:40.836Z,6.80
2023-02-12T22:43:09.145Z,7.20
2023-02-12T22:45:37.661Z,7.30
2023-02-12T22:48:05.861Z,7.50
2023-02-12T22:50:35.238Z,6.70
2023-02-12T22:53:08.871Z,7.50
2023-02-12T22:56:19.242Z,7.80
2023-02-12T23:00:37.678Z,6.90
2023-02-12T23:03:06.127Z,6.90
2023-02-12T23:05:38.587Z,6.70
2023-02-12T23:08:07.509Z,7.00
2023-02-12T23:10:35.915Z,6.80
2023-02-12T23:13:04.394Z,7.20
2023-02-12T23:16:02.000Z,7.00
2023-02-12T23:18:32.660Z,5.80
2023-02-12T23:21:16.550Z,6.50
2023-02-12T23:23:48.906Z,6.70
2023-02-12T23:26:17.546Z,6.70
2023-02-12T23:28:46.037Z,6.90
2023-02-12T23:31:36.309Z,6.70
2023-02-12T23:34:06.071Z,7.10
2023-02-12T23:36:43.868Z,6.90
2023-02-12T23:39:16.510Z,6.60
2023-02-12T23:41:47.984Z,7.20
2023-02-12T23:44:16.601Z,7.00
2023-02-12T23:46:44.867Z,7.30
2023-02-12T23:49:30.458Z,7.20
2023-02-12T23:52:05.090Z,7.10
2023-02-12T23:54:36.715Z,7.00
2023-02-12T23:57:05.540Z,6.40
2023-02-12T23:59:34.090Z,6.90
